sensor_id;sensor_type;location;lat;lon;timestamp;P1;durP1;ratioP1;P2;durP2;ratioP2
7171;SDS011;3627;46.544;14.944;2022-08-03T00:00:13;5.65;;;5.15;;
7171;SDS011;3627;46.544;14.944;2022-08-03T00:02:40;5.05;;;4.60;;
7171;SDS011;3627;46.544;14.944;2022-08-03T00:05:07;5.50;;;4.95;;
7171;SDS011;3627;46.544;14.944;2022-08-03T00:07:33;5.35;;;4.68;;
7171;SDS011;3627;46.544;14.944;2022-08-03T00:09:59;7.18;;;5.57;;
7171;SDS011;3627;46.544;14.944;2022-08-03T00:12:27;5.32;;;4.82;;
7171;SDS011;3627;46.544;14.944;2022-08-03T00:14:53;6.00;;;5.47;;
7171;SDS011;3627;46.544;14.944;2022-08-03T00:17:20;7.65;;;5.28;;
7171;SDS011;3627;46.544;14.944;2022-08-03T00:19:46;5.93;;;5.35;;
7171;SDS011;3627;46.544;14.944;2022-08-03T00:22:13;7.53;;;5.07;;
7171;SDS011;3627;46.544;14.944;2022-08-03T00:24:39;5.13;;;4.63;;
7171;SDS011;3627;46.544;14.944;2022-08-03T00:27:06;6.15;;;4.70;;
7171;SDS011;3627;46.544;14.944;2022-08-03T00:29:33;5.30;;;4.80;;
7171;SDS011;3627;46.544;14.944;2022-08-03T00:32:00;5.60;;;5.10;;
7171;SDS011;3627;46.544;14.944;2022-08-03T00:34:26;4.88;;;4.32;;
7171;SDS011;3627;46.544;14.944;2022-08-03T00:36:53;5.45;;;4.85;;
7171;SDS011;3627;46.544;14.944;2022-08-03T00:39:19;6.43;;;4.68;;
7171;SDS011;3627;46.544;14.944;2022-08-03T00:41:45;5.07;;;4.40;;
7171;SDS011;3627;46.544;14.944;2022-08-03T00:44:12;6.63;;;4.80;;
7171;SDS011;3627;46.544;14.944;2022-08-03T00:46:40;6.30;;;4.95;;
7171;SDS011;3627;46.544;14.944;2022-08-03T00:49:06;6.80;;;5.43;;
7171;SDS011;3627;46.544;14.944;2022-08-03T00:51:33;7.03;;;4.70;;
7171;SDS011;3627;46.544;14.944;2022-08-03T00:53:59;5.78;;;4.75;;
7171;SDS011;3627;46.544;14.944;2022-08-03T00:56:26;4.90;;;4.32;;
7171;SDS011;3627;46.544;14.944;2022-08-03T00:58:52;4.88;;;4.15;;
7171;SDS011;3627;46.544;14.944;2022-08-03T01:01:21;5.72;;;4.28;;
7171;SDS011;3627;46.544;14.944;2022-08-03T01:03:49;4.60;;;4.20;;
7171;SDS011;3627;46.544;14.944;2022-08-03T01:06:17;6.88;;;4.90;;
7171;SDS011;3627;46.544;14.944;2022-08-03T01:08:45;4.95;;;4.40;;
7171;SDS011;3627;46.544;14.944;2022-08-03T01:11:16;5.25;;;4.32;;
7171;SDS011;3627;46.544;14.944;2022-08-03T01:13:52;7.05;;;4.47;;
7171;SDS011;3627;46.544;14.944;2022-08-03T01:16:25;5.28;;;4.75;;
7171;SDS011;3627;46.544;14.944;2022-08-03T01:18:56;5.53;;;4.80;;
7171;SDS011;3627;46.544;14.944;2022-08-03T01:21:25;4.88;;;4.47;;
7171;SDS011;3627;46.544;14.944;2022-08-03T01:23:55;7.30;;;4.50;;
7171;SDS011;3627;46.544;14.944;2022-08-03T01:26:32;5.47;;;4.80;;
7171;SDS011;3627;46.544;14.944;2022-08-03T01:29:05;5.25;;;4.75;;
7171;SDS011;3627;46.544;14.944;2022-08-03T01:31:38;4.40;;;4.00;;
7171;SDS011;3627;46.544;14.944;2022-08-03T01:34:05;6.57;;;4.63;;
7171;SDS011;3627;46.544;14.944;2022-08-03T01:36:33;5.28;;;4.45;;
7171;SDS011;3627;46.544;14.944;2022-08-03T01:39:00;4.82;;;4.30;;
7171;SDS011;3627;46.544;14.944;2022-08-03T01:41:28;5.63;;;4.25;;
7171;SDS011;3627;46.544;14.944;2022-08-03T01:43:55;5.47;;;4.97;;
7171;SDS011;3627;46.544;14.944;2022-08-03T01:46:22;5.03;;;4.47;;
7171;SDS011;3627;46.544;14.944;2022-08-03T01:48:51;4.45;;;4.00;;
7171;SDS011;3627;46.544;14.944;2022-08-03T01:51:18;5.38;;;4.88;;
7171;SDS011;3627;46.544;14.944;2022-08-03T01:53:46;5.50;;;4.30;;
7171;SDS011;3627;46.544;14.944;2022-08-03T01:56:13;4.32;;;3.92;;
7171;SDS011;3627;46.544;14.944;2022-08-03T01:58:41;4.38;;;3.97;;
7171;SDS011;3627;46.544;14.944;2022-08-03T02:01:08;7.45;;;4.57;;
7171;SDS011;3627;46.544;14.944;2022-08-03T02:03:36;5.05;;;4.57;;
7171;SDS011;3627;46.544;14.944;2022-08-03T02:06:04;5.20;;;3.97;;
7171;SDS011;3627;46.544;14.944;2022-08-03T02:08:32;4.53;;;4.13;;
7171;SDS011;3627;46.544;14.944;2022-08-03T02:10:59;4.60;;;4.20;;
7171;SDS011;3627;46.544;14.944;2022-08-03T02:13:26;4.85;;;4.35;;
7171;SDS011;3627;46.544;14.944;2022-08-03T02:15:53;4.68;;;3.90;;
7171;SDS011;3627;46.544;14.944;2022-08-03T02:18:20;7.70;;;4.25;;
7171;SDS011;3627;46.544;14.944;2022-08-03T02:20:47;4.40;;;4.00;;
7171;SDS011;3627;46.544;14.944;2022-08-03T02:23:16;5.25;;;4.13;;
7171;SDS011;3627;46.544;14.944;2022-08-03T02:25:43;4.05;;;3.70;;
7171;SDS011;3627;46.544;14.944;2022-08-03T02:28:12;4.60;;;4.20;;
7171;SDS011;3627;46.544;14.944;2022-08-03T02:30:41;4.57;;;4.18;;
7171;SDS011;3627;46.544;14.944;2022-08-03T02:33:10;5.63;;;4.32;;
7171;SDS011;3627;46.544;14.944;2022-08-03T02:35:37;4.47;;;4.07;;
7171;SDS011;3627;46.544;14.944;2022-08-03T02:38:05;4.15;;;3.75;;
7171;SDS011;3627;46.544;14.944;2022-08-03T02:40:34;4.97;;;4.20;;
7171;SDS011;3627;46.544;14.944;2022-08-03T02:43:02;4.20;;;3.80;;
7171;SDS011;3627;46.544;14.944;2022-08-03T02:45:30;4.75;;;4.00;;
7171;SDS011;3627;46.544;14.944;2022-08-03T02:47:59;6.20;;;4.35;;
7171;SDS011;3627;46.544;14.944;2022-08-03T02:50:27;4.75;;;4.20;;
7171;SDS011;3627;46.544;14.944;2022-08-03T02:52:55;4.32;;;3.58;;
7171;SDS011;3627;46.544;14.944;2022-08-03T02:55:23;5.15;;;3.90;;
7171;SDS011;3627;46.544;14.944;2022-08-03T02:57:51;4.38;;;3.97;;
7171;SDS011;3627;46.544;14.944;2022-08-03T03:00:19;4.47;;;4.18;;
7171;SDS011;3627;46.544;14.944;2022-08-03T03:02:46;5.15;;;4.15;;
7171;SDS011;3627;46.544;14.944;2022-08-03T03:05:12;4.38;;;4.05;;
7171;SDS011;3627;46.544;14.944;2022-08-03T03:07:40;4.43;;;4.03;;
7171;SDS011;3627;46.544;14.944;2022-08-03T03:10:07;5.18;;;3.90;;
7171;SDS011;3627;46.544;14.944;2022-08-03T03:12:34;3.80;;;3.50;;
7171;SDS011;3627;46.544;14.944;2022-08-03T03:15:02;5.13;;;4.07;;
7171;SDS011;3627;46.544;14.944;2022-08-03T03:17:30;5.40;;;3.60;;
7171;SDS011;3627;46.544;14.944;2022-08-03T03:19:58;4.93;;;3.97;;
7171;SDS011;3627;46.544;14.944;2022-08-03T03:22:26;4.80;;;4.32;;
7171;SDS011;3627;46.544;14.944;2022-08-03T03:24:52;6.45;;;4.10;;
7171;SDS011;3627;46.544;14.944;2022-08-03T03:27:19;5.20;;;4.45;;
7171;SDS011;3627;46.544;14.944;2022-08-03T03:29:46;4.15;;;3.75;;
7171;SDS011;3627;46.544;14.944;2022-08-03T03:32:14;4.93;;;4.00;;
7171;SDS011;3627;46.544;14.944;2022-08-03T03:34:41;5.32;;;4.10;;
7171;SDS011;3627;46.544;14.944;2022-08-03T03:37:07;4.43;;;4.03;;
7171;SDS011;3627;46.544;14.944;2022-08-03T03:39:34;4.68;;;4.28;;
7171;SDS011;3627;46.544;14.944;2022-08-03T03:42:01;4.28;;;3.88;;
7171;SDS011;3627;46.544;14.944;2022-08-03T03:44:28;4.55;;;4.15;;
7171;SDS011;3627;46.544;14.944;2022-08-03T03:46:55;6.50;;;4.38;;
7171;SDS011;3627;46.544;14.944;2022-08-03T03:49:24;5.13;;;4.55;;
7171;SDS011;3627;46.544;14.944;2022-08-03T03:51:51;5.47;;;4.53;;
7171;SDS011;3627;46.544;14.944;2022-08-03T03:54:17;4.90;;;4.20;;
7171;SDS011;3627;46.544;14.944;2022-08-03T03:56:44;6.05;;;4.60;;
7171;SDS011;3627;46.544;14.944;2022-08-03T03:59:10;5.22;;;4.70;;
7171;SDS011;3627;46.544;14.944;2022-08-03T04:01:37;4.82;;;4.18;;
7171;SDS011;3627;46.544;14.944;2022-08-03T04:04:04;5.22;;;4.78;;
7171;SDS011;3627;46.544;14.944;2022-08-03T04:06:45;8.95;;;5.25;;
7171;SDS011;3627;46.544;14.944;2022-08-03T04:09:29;8.00;;;4.93;;
7171;SDS011;3627;46.544;14.944;2022-08-03T04:12:13;6.50;;;4.60;;
7171;SDS011;3627;46.544;14.944;2022-08-03T04:14:41;5.97;;;4.38;;
7171;SDS011;3627;46.544;14.944;2022-08-03T04:17:08;7.03;;;4.63;;
7171;SDS011;3627;46.544;14.944;2022-08-03T04:19:39;6.22;;;4.05;;
7171;SDS011;3627;46.544;14.944;2022-08-03T04:22:08;4.93;;;4.43;;
7171;SDS011;3627;46.544;14.944;2022-08-03T04:24:42;4.90;;;4.05;;
7171;SDS011;3627;46.544;14.944;2022-08-03T04:27:10;4.00;;;3.70;;
7171;SDS011;3627;46.544;14.944;2022-08-03T04:29:38;5.63;;;3.95;;
7171;SDS011;3627;46.544;14.944;2022-08-03T04:32:05;9.35;;;4.25;;
7171;SDS011;3627;46.544;14.944;2022-08-03T04:34:31;3.90;;;3.30;;
7171;SDS011;3627;46.544;14.944;2022-08-03T04:36:59;3.40;;;2.65;;
7171;SDS011;3627;46.544;14.944;2022-08-03T04:39:28;4.03;;;2.58;;
7171;SDS011;3627;46.544;14.944;2022-08-03T04:41:57;3.60;;;2.97;;
7171;SDS011;3627;46.544;14.944;2022-08-03T04:44:25;5.93;;;3.00;;
7171;SDS011;3627;46.544;14.944;2022-08-03T04:46:52;3.95;;;3.05;;
7171;SDS011;3627;46.544;14.944;2022-08-03T04:49:19;6.30;;;2.78;;
7171;SDS011;3627;46.544;14.944;2022-08-03T04:51:46;3.90;;;3.00;;
7171;SDS011;3627;46.544;14.944;2022-08-03T04:54:14;5.18;;;3.20;;
7171;SDS011;3627;46.544;14.944;2022-08-03T04:56:41;4.50;;;3.30;;
7171;SDS011;3627;46.544;14.944;2022-08-03T04:59:08;4.15;;;3.53;;
7171;SDS011;3627;46.544;14.944;2022-08-03T05:01:35;3.78;;;3.10;;
7171;SDS011;3627;46.544;14.944;2022-08-03T05:04:01;3.38;;;2.97;;
7171;SDS011;3627;46.544;14.944;2022-08-03T05:06:28;3.83;;;2.97;;
7171;SDS011;3627;46.544;14.944;2022-08-03T05:08:54;4.20;;;2.92;;
7171;SDS011;3627;46.544;14.944;2022-08-03T05:11:21;3.78;;;2.70;;
7171;SDS011;3627;46.544;14.944;2022-08-03T05:13:48;8.57;;;3.13;;
7171;SDS011;3627;46.544;14.944;2022-08-03T05:16:15;4.45;;;2.92;;
7171;SDS011;3627;46.544;14.944;2022-08-03T05:18:41;7.30;;;3.30;;
7171;SDS011;3627;46.544;14.944;2022-08-03T05:21:08;5.53;;;3.65;;
7171;SDS011;3627;46.544;14.944;2022-08-03T05:23:34;8.25;;;3.13;;
7171;SDS011;3627;46.544;14.944;2022-08-03T05:26:01;10.50;;;3.50;;
7171;SDS011;3627;46.544;14.944;2022-08-03T05:28:28;9.68;;;3.63;;
7171;SDS011;3627;46.544;14.944;2022-08-03T05:30:56;4.80;;;2.83;;
7171;SDS011;3627;46.544;14.944;2022-08-03T05:33:23;4.40;;;2.92;;
7171;SDS011;3627;46.544;14.944;2022-08-03T05:35:49;5.45;;;2.85;;
7171;SDS011;3627;46.544;14.944;2022-08-03T05:38:15;5.00;;;3.20;;
7171;SDS011;3627;46.544;14.944;2022-08-03T05:40:42;5.28;;;2.90;;
7171;SDS011;3627;46.544;14.944;2022-08-03T05:43:08;8.80;;;3.03;;
7171;SDS011;3627;46.544;14.944;2022-08-03T05:45:35;3.72;;;2.35;;
7171;SDS011;3627;46.544;14.944;2022-08-03T05:48:03;5.72;;;3.15;;
7171;SDS011;3627;46.544;14.944;2022-08-03T05:50:30;3.22;;;2.92;;
7171;SDS011;3627;46.544;14.944;2022-08-03T05:52:57;5.75;;;3.20;;
7171;SDS011;3627;46.544;14.944;2022-08-03T05:55:23;4.78;;;2.67;;
7171;SDS011;3627;46.544;14.944;2022-08-03T05:57:50;6.97;;;2.95;;
7171;SDS011;3627;46.544;14.944;2022-08-03T06:00:16;5.28;;;2.65;;
7171;SDS011;3627;46.544;14.944;2022-08-03T06:02:43;2.97;;;2.53;;
7171;SDS011;3627;46.544;14.944;2022-08-03T06:05:11;2.47;;;2.00;;
7171;SDS011;3627;46.544;14.944;2022-08-03T06:07:37;3.72;;;2.13;;
7171;SDS011;3627;46.544;14.944;2022-08-03T06:10:04;3.40;;;2.53;;
7171;SDS011;3627;46.544;14.944;2022-08-03T06:12:31;4.03;;;2.45;;
7171;SDS011;3627;46.544;14.944;2022-08-03T06:15:00;3.28;;;2.25;;
7171;SDS011;3627;46.544;14.944;2022-08-03T06:17:26;2.72;;;2.10;;
7171;SDS011;3627;46.544;14.944;2022-08-03T06:19:53;2.85;;;2.55;;
7171;SDS011;3627;46.544;14.944;2022-08-03T06:22:21;2.58;;;2.38;;
7171;SDS011;3627;46.544;14.944;2022-08-03T06:24:47;2.13;;;1.92;;
7171;SDS011;3627;46.544;14.944;2022-08-03T06:27:14;2.83;;;1.90;;
7171;SDS011;3627;46.544;14.944;2022-08-03T06:29:40;2.88;;;2.15;;
7171;SDS011;3627;46.544;14.944;2022-08-03T06:32:06;2.30;;;2.10;;
7171;SDS011;3627;46.544;14.944;2022-08-03T06:34:33;2.75;;;2.28;;
7171;SDS011;3627;46.544;14.944;2022-08-03T06:36:59;3.08;;;2.50;;
7171;SDS011;3627;46.544;14.944;2022-08-03T06:39:27;2.60;;;2.28;;
7171;SDS011;3627;46.544;14.944;2022-08-03T06:41:54;2.70;;;2.50;;
7171;SDS011;3627;46.544;14.944;2022-08-03T06:44:20;3.00;;;2.20;;
7171;SDS011;3627;46.544;14.944;2022-08-03T06:46:46;2.40;;;2.20;;
7171;SDS011;3627;46.544;14.944;2022-08-03T06:49:13;4.47;;;2.25;;
7171;SDS011;3627;46.544;14.944;2022-08-03T06:51:40;2.53;;;2.33;;
7171;SDS011;3627;46.544;14.944;2022-08-03T06:54:06;3.42;;;2.22;;
7171;SDS011;3627;46.544;14.944;2022-08-03T06:56:34;4.30;;;2.72;;
7171;SDS011;3627;46.544;14.944;2022-08-03T06:59:00;2.92;;;2.40;;
7171;SDS011;3627;46.544;14.944;2022-08-03T07:01:27;3.28;;;2.47;;
7171;SDS011;3627;46.544;14.944;2022-08-03T07:03:53;3.55;;;2.20;;
7171;SDS011;3627;46.544;14.944;2022-08-03T07:06:20;4.03;;;2.28;;
7171;SDS011;3627;46.544;14.944;2022-08-03T07:08:46;4.65;;;2.55;;
7171;SDS011;3627;46.544;14.944;2022-08-03T07:11:13;2.47;;;2.28;;
7171;SDS011;3627;46.544;14.944;2022-08-03T07:13:41;2.42;;;2.28;;
7171;SDS011;3627;46.544;14.944;2022-08-03T07:16:07;2.85;;;2.33;;
7171;SDS011;3627;46.544;14.944;2022-08-03T07:18:36;2.60;;;2.40;;
7171;SDS011;3627;46.544;14.944;2022-08-03T07:21:02;3.40;;;2.45;;
7171;SDS011;3627;46.544;14.944;2022-08-03T07:23:29;2.40;;;2.20;;
7171;SDS011;3627;46.544;14.944;2022-08-03T07:25:55;3.05;;;2.10;;
7171;SDS011;3627;46.544;14.944;2022-08-03T07:28:22;2.35;;;2.15;;
7171;SDS011;3627;46.544;14.944;2022-08-03T07:30:49;2.40;;;2.20;;
7171;SDS011;3627;46.544;14.944;2022-08-03T07:33:16;3.63;;;2.17;;
7171;SDS011;3627;46.544;14.944;2022-08-03T07:35:42;2.60;;;2.40;;
7171;SDS011;3627;46.544;14.944;2022-08-03T07:38:09;2.63;;;2.00;;
7171;SDS011;3627;46.544;14.944;2022-08-03T07:40:35;2.35;;;2.15;;
7171;SDS011;3627;46.544;14.944;2022-08-03T07:43:01;4.13;;;2.30;;
7171;SDS011;3627;46.544;14.944;2022-08-03T07:45:29;2.42;;;2.22;;
7171;SDS011;3627;46.544;14.944;2022-08-03T07:47:57;3.58;;;2.00;;
7171;SDS011;3627;46.544;14.944;2022-08-03T07:50:23;2.50;;;2.30;;
7171;SDS011;3627;46.544;14.944;2022-08-03T07:52:50;2.58;;;2.20;;
7171;SDS011;3627;46.544;14.944;2022-08-03T07:55:18;2.60;;;2.40;;
7171;SDS011;3627;46.544;14.944;2022-08-03T07:57:45;2.33;;;2.13;;
7171;SDS011;3627;46.544;14.944;2022-08-03T08:00:13;4.20;;;3.58;;
7171;SDS011;3627;46.544;14.944;2022-08-03T08:02:40;3.63;;;2.28;;
7171;SDS011;3627;46.544;14.944;2022-08-03T08:05:08;2.92;;;2.33;;
7171;SDS011;3627;46.544;14.944;2022-08-03T08:07:36;2.97;;;2.13;;
7171;SDS011;3627;46.544;14.944;2022-08-03T08:10:03;2.67;;;2.47;;
7171;SDS011;3627;46.544;14.944;2022-08-03T08:12:30;2.80;;;2.13;;
7171;SDS011;3627;46.544;14.944;2022-08-03T08:14:56;2.55;;;2.35;;
7171;SDS011;3627;46.544;14.944;2022-08-03T08:17:23;2.40;;;2.20;;
7171;SDS011;3627;46.544;14.944;2022-08-03T08:19:49;2.33;;;2.13;;
7171;SDS011;3627;46.544;14.944;2022-08-03T08:22:17;2.25;;;2.05;;
7171;SDS011;3627;46.544;14.944;2022-08-03T08:24:44;2.65;;;2.22;;
7171;SDS011;3627;46.544;14.944;2022-08-03T08:27:12;2.72;;;2.45;;
7171;SDS011;3627;46.544;14.944;2022-08-03T08:29:38;5.50;;;1.98;;
7171;SDS011;3627;46.544;14.944;2022-08-03T08:32:05;2.38;;;2.03;;
7171;SDS011;3627;46.544;14.944;2022-08-03T08:34:32;2.30;;;2.10;;
7171;SDS011;3627;46.544;14.944;2022-08-03T08:36:58;2.30;;;2.00;;
7171;SDS011;3627;46.544;14.944;2022-08-03T08:39:26;3.65;;;2.10;;
7171;SDS011;3627;46.544;14.944;2022-08-03T08:41:52;2.00;;;1.90;;
7171;SDS011;3627;46.544;14.944;2022-08-03T08:44:19;2.13;;;1.98;;
7171;SDS011;3627;46.544;14.944;2022-08-03T08:46:46;2.13;;;1.92;;
7171;SDS011;3627;46.544;14.944;2022-08-03T08:49:13;3.65;;;2.47;;
7171;SDS011;3627;46.544;14.944;2022-08-03T08:51:41;5.50;;;2.70;;
7171;SDS011;3627;46.544;14.944;2022-08-03T08:54:08;4.50;;;2.60;;
7171;SDS011;3627;46.544;14.944;2022-08-03T08:56:36;3.15;;;2.85;;
7171;SDS011;3627;46.544;14.944;2022-08-03T08:59:03;2.20;;;2.00;;
7171;SDS011;3627;46.544;14.944;2022-08-03T09:01:30;2.75;;;2.10;;
7171;SDS011;3627;46.544;14.944;2022-08-03T09:03:56;1.85;;;1.75;;
7171;SDS011;3627;46.544;14.944;2022-08-03T09:06:23;3.95;;;2.17;;
7171;SDS011;3627;46.544;14.944;2022-08-03T09:08:49;2.25;;;2.10;;
7171;SDS011;3627;46.544;14.944;2022-08-03T09:11:19;2.00;;;1.90;;
7171;SDS011;3627;46.544;14.944;2022-08-03T09:13:47;6.50;;;2.40;;
7171;SDS011;3627;46.544;14.944;2022-08-03T09:16:14;2.80;;;2.00;;
7171;SDS011;3627;46.544;14.944;2022-08-03T09:18:41;2.45;;;1.80;;
7171;SDS011;3627;46.544;14.944;2022-08-03T09:21:12;2.67;;;2.35;;
7171;SDS011;3627;46.544;14.944;2022-08-03T09:23:42;3.50;;;2.40;;
7171;SDS011;3627;46.544;14.944;2022-08-03T09:26:09;2.35;;;1.98;;
7171;SDS011;3627;46.544;14.944;2022-08-03T09:28:36;2.47;;;2.28;;
7171;SDS011;3627;46.544;14.944;2022-08-03T09:31:04;3.55;;;2.90;;
7171;SDS011;3627;46.544;14.944;2022-08-03T09:33:32;5.03;;;2.50;;
7171;SDS011;3627;46.544;14.944;2022-08-03T09:35:58;2.45;;;2.25;;
7171;SDS011;3627;46.544;14.944;2022-08-03T09:38:25;3.28;;;2.53;;
7171;SDS011;3627;46.544;14.944;2022-08-03T09:40:51;2.67;;;2.13;;
7171;SDS011;3627;46.544;14.944;2022-08-03T09:43:19;2.63;;;2.42;;
7171;SDS011;3627;46.544;14.944;2022-08-03T09:45:46;2.33;;;2.13;;
7171;SDS011;3627;46.544;14.944;2022-08-03T09:50:59;4.18;;;2.20;;
7171;SDS011;3627;46.544;14.944;2022-08-03T09:53:26;2.60;;;2.40;;
7171;SDS011;3627;46.544;14.944;2022-08-03T09:55:53;2.35;;;2.15;;
7171;SDS011;3627;46.544;14.944;2022-08-03T09:58:20;2.15;;;1.90;;
7171;SDS011;3627;46.544;14.944;2022-08-03T10:00:54;2.05;;;1.80;;
7171;SDS011;3627;46.544;14.944;2022-08-03T10:03:21;2.00;;;1.80;;
7171;SDS011;3627;46.544;14.944;2022-08-03T10:05:48;2.50;;;2.10;;
7171;SDS011;3627;46.544;14.944;2022-08-03T10:08:16;2.05;;;1.92;;
7171;SDS011;3627;46.544;14.944;2022-08-03T10:10:44;3.25;;;2.08;;
7171;SDS011;3627;46.544;14.944;2022-08-03T10:13:12;2.53;;;1.80;;
7171;SDS011;3627;46.544;14.944;2022-08-03T10:15:38;2.15;;;1.90;;
7171;SDS011;3627;46.544;14.944;2022-08-03T10:18:05;3.92;;;1.77;;
7171;SDS011;3627;46.544;14.944;2022-08-03T10:20:35;2.05;;;1.90;;
7171;SDS011;3627;46.544;14.944;2022-08-03T10:23:02;2.50;;;2.30;;
7171;SDS011;3627;46.544;14.944;2022-08-03T10:25:31;2.50;;;1.75;;
7171;SDS011;3627;46.544;14.944;2022-08-03T10:27:59;2.25;;;1.83;;
7171;SDS011;3627;46.544;14.944;2022-08-03T10:30:28;3.75;;;2.30;;
7171;SDS011;3627;46.544;14.944;2022-08-03T10:32:57;3.13;;;1.90;;
7171;SDS011;3627;46.544;14.944;2022-08-03T10:35:24;2.30;;;1.98;;
7171;SDS011;3627;46.544;14.944;2022-08-03T10:37:51;2.70;;;1.92;;
7171;SDS011;3627;46.544;14.944;2022-08-03T10:40:20;4.75;;;1.98;;
7171;SDS011;3627;46.544;14.944;2022-08-03T10:42:49;1.80;;;1.50;;
7171;SDS011;3627;46.544;14.944;2022-08-03T10:45:17;3.00;;;1.70;;
7171;SDS011;3627;46.544;14.944;2022-08-03T10:47:44;1.67;;;1.58;;
7171;SDS011;3627;46.544;14.944;2022-08-03T10:50:11;2.15;;;1.50;;
7171;SDS011;3627;46.544;14.944;2022-08-03T10:52:52;1.85;;;1.75;;
7171;SDS011;3627;46.544;14.944;2022-08-03T10:55:28;2.63;;;1.90;;
7171;SDS011;3627;46.544;14.944;2022-08-03T10:58:14;1.70;;;1.60;;
7171;SDS011;3627;46.544;14.944;2022-08-03T11:00:47;3.03;;;1.48;;
7171;SDS011;3627;46.544;14.944;2022-08-03T11:03:13;1.73;;;1.42;;
7171;SDS011;3627;46.544;14.944;2022-08-03T11:05:41;1.85;;;1.73;;
7171;SDS011;3627;46.544;14.944;2022-08-03T11:08:17;1.73;;;1.63;;
7171;SDS011;3627;46.544;14.944;2022-08-03T11:10:44;2.50;;;1.95;;
7171;SDS011;3627;46.544;14.944;2022-08-03T11:13:10;2.95;;;2.08;;
7171;SDS011;3627;46.544;14.944;2022-08-03T11:15:41;1.90;;;1.70;;
7171;SDS011;3627;46.544;14.944;2022-08-03T11:18:09;3.35;;;2.00;;
7171;SDS011;3627;46.544;14.944;2022-08-03T11:20:45;2.00;;;1.80;;
7171;SDS011;3627;46.544;14.944;2022-08-03T11:23:12;2.22;;;1.80;;
7171;SDS011;3627;46.544;14.944;2022-08-03T11:28:29;2.00;;;1.90;;
7171;SDS011;3627;46.544;14.944;2022-08-03T11:31:08;1.98;;;1.70;;
7171;SDS011;3627;46.544;14.944;2022-08-03T11:34:01;1.83;;;1.73;;
7171;SDS011;3627;46.544;14.944;2022-08-03T11:36:28;2.90;;;1.92;;
7171;SDS011;3627;46.544;14.944;2022-08-03T11:39:13;2.38;;;1.83;;
7171;SDS011;3627;46.544;14.944;2022-08-03T11:41:40;2.17;;;2.03;;
7171;SDS011;3627;46.544;14.944;2022-08-03T11:44:09;3.45;;;2.00;;
7171;SDS011;3627;46.544;14.944;2022-08-03T11:46:56;1.98;;;1.80;;
7171;SDS011;3627;46.544;14.944;2022-08-03T11:49:24;2.25;;;2.05;;
7171;SDS011;3627;46.544;14.944;2022-08-03T11:51:51;2.15;;;1.95;;
7171;SDS011;3627;46.544;14.944;2022-08-03T11:54:18;2.42;;;2.22;;
7171;SDS011;3627;46.544;14.944;2022-08-03T11:56:47;3.42;;;1.90;;
7171;SDS011;3627;46.544;14.944;2022-08-03T11:59:14;2.55;;;2.17;;
7171;SDS011;3627;46.544;14.944;2022-08-03T12:01:41;3.47;;;2.05;;
7171;SDS011;3627;46.544;14.944;2022-08-03T12:04:09;4.28;;;1.90;;
7171;SDS011;3627;46.544;14.944;2022-08-03T12:06:35;1.70;;;1.60;;
7171;SDS011;3627;46.544;14.944;2022-08-03T12:09:16;2.42;;;2.22;;
7171;SDS011;3627;46.544;14.944;2022-08-03T12:11:42;2.78;;;1.90;;
7171;SDS011;3627;46.544;14.944;2022-08-03T12:14:15;1.80;;;1.70;;
7171;SDS011;3627;46.544;14.944;2022-08-03T12:16:45;2.55;;;1.90;;
7171;SDS011;3627;46.544;14.944;2022-08-03T12:19:13;2.17;;;1.98;;
7171;SDS011;3627;46.544;14.944;2022-08-03T12:21:44;1.92;;;1.83;;
7171;SDS011;3627;46.544;14.944;2022-08-03T12:24:11;2.20;;;2.00;;
7171;SDS011;3627;46.544;14.944;2022-08-03T12:26:41;2.03;;;1.92;;
7171;SDS011;3627;46.544;14.944;2022-08-03T12:29:15;1.90;;;1.80;;
7171;SDS011;3627;46.544;14.944;2022-08-03T12:31:41;1.88;;;1.77;;
7171;SDS011;3627;46.544;14.944;2022-08-03T12:34:07;2.22;;;1.52;;
7171;SDS011;3627;46.544;14.944;2022-08-03T12:36:36;2.83;;;1.88;;
7171;SDS011;3627;46.544;14.944;2022-08-03T12:39:04;1.90;;;1.67;;
7171;SDS011;3627;46.544;14.944;2022-08-03T12:41:32;1.80;;;1.70;;
7171;SDS011;3627;46.544;14.944;2022-08-03T12:43:59;2.25;;;1.70;;
7171;SDS011;3627;46.544;14.944;2022-08-03T12:46:30;1.80;;;1.70;;
7171;SDS011;3627;46.544;14.944;2022-08-03T12:49:04;3.67;;;2.00;;
7171;SDS011;3627;46.544;14.944;2022-08-03T12:51:31;2.08;;;1.73;;
7171;SDS011;3627;46.544;14.944;2022-08-03T12:54:00;1.90;;;1.67;;
7171;SDS011;3627;46.544;14.944;2022-08-03T12:56:26;2.13;;;1.70;;
7171;SDS011;3627;46.544;14.944;2022-08-03T12:58:53;1.83;;;1.73;;
7171;SDS011;3627;46.544;14.944;2022-08-03T13:01:19;1.83;;;1.73;;
7171;SDS011;3627;46.544;14.944;2022-08-03T13:03:48;2.42;;;2.20;;
7171;SDS011;3627;46.544;14.944;2022-08-03T13:06:16;1.80;;;1.70;;
7171;SDS011;3627;46.544;14.944;2022-08-03T13:08:43;2.05;;;1.88;;
7171;SDS011;3627;46.544;14.944;2022-08-03T13:11:21;1.80;;;1.70;;
7171;SDS011;3627;46.544;14.944;2022-08-03T13:13:50;2.10;;;1.90;;
7171;SDS011;3627;46.544;14.944;2022-08-03T13:16:16;2.53;;;1.75;;
7171;SDS011;3627;46.544;14.944;2022-08-03T13:18:43;1.90;;;1.73;;
7171;SDS011;3627;46.544;14.944;2022-08-03T13:21:11;2.00;;;1.77;;
7171;SDS011;3627;46.544;14.944;2022-08-03T13:23:37;2.80;;;1.90;;
7171;SDS011;3627;46.544;14.944;2022-08-03T13:26:04;3.35;;;1.90;;
7171;SDS011;3627;46.544;14.944;2022-08-03T13:28:32;1.70;;;1.60;;
7171;SDS011;3627;46.544;14.944;2022-08-03T13:30:58;1.58;;;1.48;;
7171;SDS011;3627;46.544;14.944;2022-08-03T13:33:25;1.70;;;1.60;;
7171;SDS011;3627;46.544;14.944;2022-08-03T13:35:51;2.28;;;1.80;;
7171;SDS011;3627;46.544;14.944;2022-08-03T13:38:18;2.42;;;1.63;;
7171;SDS011;3627;46.544;14.944;2022-08-03T13:40:44;2.38;;;1.50;;
7171;SDS011;3627;46.544;14.944;2022-08-03T13:43:11;3.13;;;1.85;;
7171;SDS011;3627;46.544;14.944;2022-08-03T13:45:39;1.88;;;1.77;;
7171;SDS011;3627;46.544;14.944;2022-08-03T13:48:05;2.38;;;1.70;;
7171;SDS011;3627;46.544;14.944;2022-08-03T13:50:38;1.75;;;1.55;;
7171;SDS011;3627;46.544;14.944;2022-08-03T13:53:05;2.05;;;1.63;;
7171;SDS011;3627;46.544;14.944;2022-08-03T13:55:31;1.77;;;1.67;;
7171;SDS011;3627;46.544;14.944;2022-08-03T13:57:57;3.13;;;1.70;;
7171;SDS011;3627;46.544;14.944;2022-08-03T14:00:24;3.38;;;1.90;;
7171;SDS011;3627;46.544;14.944;2022-08-03T14:02:52;2.45;;;2.13;;
7171;SDS011;3627;46.544;14.944;2022-08-03T14:05:18;1.88;;;1.77;;
7171;SDS011;3627;46.544;14.944;2022-08-03T14:07:45;1.73;;;1.63;;
7171;SDS011;3627;46.544;14.944;2022-08-03T14:10:13;2.15;;;2.00;;
7171;SDS011;3627;46.544;14.944;2022-08-03T14:12:41;3.33;;;1.90;;
7171;SDS011;3627;46.544;14.944;2022-08-03T14:15:08;3.35;;;1.90;;
7171;SDS011;3627;46.544;14.944;2022-08-03T14:17:37;1.83;;;1.73;;
7171;SDS011;3627;46.544;14.944;2022-08-03T14:20:05;2.00;;;1.90;;
7171;SDS011;3627;46.544;14.944;2022-08-03T14:22:32;5.22;;;2.10;;
7171;SDS011;3627;46.544;14.944;2022-08-03T14:24:58;1.92;;;1.83;;
7171;SDS011;3627;46.544;14.944;2022-08-03T14:27:24;2.95;;;1.92;;
7171;SDS011;3627;46.544;14.944;2022-08-03T14:29:51;2.10;;;1.90;;
7171;SDS011;3627;46.544;14.944;2022-08-03T14:32:17;1.95;;;1.80;;
7171;SDS011;3627;46.544;14.944;2022-08-03T14:34:44;2.65;;;2.00;;
7171;SDS011;3627;46.544;14.944;2022-08-03T14:37:12;2.92;;;2.17;;
7171;SDS011;3627;46.544;14.944;2022-08-03T14:39:38;2.00;;;1.80;;
7171;SDS011;3627;46.544;14.944;2022-08-03T14:42:04;2.38;;;2.15;;
7171;SDS011;3627;46.544;14.944;2022-08-03T14:44:31;3.10;;;2.20;;
7171;SDS011;3627;46.544;14.944;2022-08-03T14:46:57;2.17;;;1.98;;
7171;SDS011;3627;46.544;14.944;2022-08-03T14:49:24;3.67;;;2.17;;
7171;SDS011;3627;46.544;14.944;2022-08-03T14:51:50;2.20;;;2.00;;
7171;SDS011;3627;46.544;14.944;2022-08-03T14:54:18;3.28;;;1.98;;
7171;SDS011;3627;46.544;14.944;2022-08-03T14:56:44;3.35;;;1.67;;
7171;SDS011;3627;46.544;14.944;2022-08-03T14:59:11;6.07;;;2.15;;
7171;SDS011;3627;46.544;14.944;2022-08-03T15:01:37;2.67;;;2.03;;
7171;SDS011;3627;46.544;14.944;2022-08-03T15:04:04;2.83;;;2.22;;
7171;SDS011;3627;46.544;14.944;2022-08-03T15:06:30;4.68;;;2.00;;
7171;SDS011;3627;46.544;14.944;2022-08-03T15:08:56;4.28;;;2.15;;